Time;durP1;ratioP1;P1;durP2;ratioP2;P2;SDS_P1;SDS_P2;PMS_P1;PMS_P2;Temp;Humidity;BMP_temperature;BMP_pressure;BME280_temperature;BME280_humidity;BME280_pressure;Samples;Min_cycle;Max_cycle;Signal;HPM_P1;HPM_P2
2023/09/23 00:06:21;;;;;;;13.18;6.90;;;;;;;25.64;47.49;99540.75;41426014;28;20062;-78
2023/09/23 00:26:23;;;;;;;9.13;6.10;;;;;;;25.63;48.05;99538.28;41421991;28;20114;-78
2023/09/23 00:46:23;;;;;;;13.68;6.30;;;;;;;25.63;48.10;99551.53;41415415;28;20053;-77
2023/09/23 01:06:27;;;;;;;8.98;6.72;;;;;;;25.60;48.31;99549.22;41369459;28;20521;-75
2023/09/23 01:26:28;;;;;;;13.30;7.05;;;;;;;25.61;48.30;99575.56;41356805;28;20035;-75
2023/09/23 01:46:30;;;;;;;10.88;6.88;;;;;;;25.54;48.69;99569.28;41355651;28;20082;-75
2023/09/23 02:06:36;;;;;;;8.73;6.30;;;;;;;25.48;48.36;99585.84;41343830;28;20520;-76
2023/09/23 02:26:36;;;;;;;10.07;6.47;;;;;;;25.57;48.19;99614.84;41356143;28;20038;-76
2023/09/23 02:46:39;;;;;;;12.60;6.47;;;;;;;25.47;47.96;99656.56;41354737;28;20498;-76
2023/09/23 03:06:40;;;;;;;12.23;6.90;;;;;;;25.48;47.52;99676.78;41342547;28;20193;-74
2023/09/23 03:26:40;;;;;;;11.25;6.13;;;;;;;25.51;47.55;99652.63;41331800;28;20142;-72
2023/09/23 03:46:42;;;;;;;9.43;6.47;;;;;;;25.51;47.89;99622.63;41329456;28;20054;-72
2023/09/23 04:06:43;;;;;;;12.18;7.32;;;;;;;25.47;48.10;99651.28;41314136;28;20050;-71
2023/09/23 04:26:43;;;;;;;10.98;6.93;;;;;;;25.55;48.63;99714.09;41316383;28;20042;-70
2023/09/23 04:46:45;;;;;;;11.57;6.78;;;;;;;25.48;48.66;99683.94;41345108;28;20050;-71
2023/09/23 05:06:45;;;;;;;9.55;6.10;;;;;;;25.33;47.62;99691.63;41356587;28;20042;-72
2023/09/23 05:26:48;;;;;;;10.80;6.57;;;;;;;25.48;48.23;99727.16;41341544;28;20051;-70
2023/09/23 05:46:49;;;;;;;7.88;5.82;;;;;;;25.41;48.53;99792.41;41333222;28;20152;-74
2023/09/23 06:06:49;;;;;;;11.38;6.60;;;;;;;25.69;49.60;99831.91;41340416;28;20477;-75
2023/09/23 06:26:50;;;;;;;12.93;8.02;;;;;;;25.71;49.84;99836.06;41357956;28;20129;-74
2023/09/23 06:46:51;;;;;;;12.77;7.75;;;;;;;25.73;50.03;99924.25;41346671;28;20050;-73
2023/09/23 07:06:55;;;;;;;14.40;8.68;;;;;;;25.62;50.39;99944.91;41343481;28;20046;-74
2023/09/23 07:26:57;;;;;;;11.52;7.88;;;;;;;25.81;50.43;100018.91;41332774;28;20519;-73
2023/09/23 07:46:58;;;;;;;11.02;6.95;;;;;;;25.83;50.59;100027.53;41317056;28;20422;-74
2023/09/23 08:06:58;;;;;;;16.02;6.90;;;;;;;25.72;51.16;99982.75;41322704;28;20054;-75
2023/09/23 08:26:59;;;;;;;11.85;6.28;;;;;;;25.70;51.34;99876.00;41357015;28;20039;-75
2023/09/23 08:46:59;;;;;;;10.63;5.93;;;;;;;25.69;51.31;99899.00;41360114;28;20061;-75
2023/09/23 09:07:00;;;;;;;9.85;5.50;;;;;;;25.73;51.62;99910.13;41356462;28;20038;-76
2023/09/23 09:27:00;;;;;;;7.40;3.40;;;;;;;23.48;59.51;99977.09;41407291;28;20050;-74
2023/09/23 09:47:02;;;;;;;8.10;3.40;;;;;;;23.48;59.62;100010.63;41381232;28;20050;-71
2023/09/23 10:07:06;;;;;;;5.65;2.97;;;;;;;23.44;58.73;99957.25;41382894;28;20581;-78
2023/09/23 10:27:11;;;;;;;5.20;4.35;;;;;;;23.42;56.88;99990.91;41360049;28;20046;-76
2023/09/23 10:47:13;;;;;;;12.85;7.75;;;;;;;23.18;57.52;99972.91;41346843;28;20053;-76
2023/09/23 11:07:15;;;;;;;8.90;5.18;;;;;;;23.02;58.08;99998.03;41352380;28;20053;-74
2023/09/23 11:27:17;;;;;;;5.88;3.20;;;;;;;23.71;55.73;100026.16;41354659;28;20102;-75
2023/09/23 11:47:17;;;;;;;2.42;2.20;;;;;;;23.64;52.82;99988.88;41395056;28;20042;-76
2023/09/23 12:07:18;;;;;;;11.63;3.13;;;;;;;24.92;51.60;100018.94;41404841;28;20488;-78
2023/09/23 12:27:19;;;;;;;9.48;3.78;;;;;;;24.95;51.90;100057.56;41414096;28;20415;-77
2023/09/23 12:47:20;;;;;;;5.22;3.50;;;;;;;25.00;51.57;100057.09;41386979;28;20442;-77
2023/09/23 13:07:20;;;;;;;4.55;3.55;;;;;;;24.84;51.26;100061.25;41390131;28;20062;-78
2023/09/23 13:27:21;;;;;;;3.83;3.40;;;;;;;25.07;51.36;100089.94;41379558;28;20065;-78
2023/09/23 13:47:22;;;;;;;3.35;2.90;;;;;;;25.04;51.43;100077.00;41383895;28;20470;-78
2023/09/23 14:07:30;;;;;;;4.63;3.00;;;;;;;24.98;51.03;100085.56;41371804;28;20125;-77
2023/09/23 14:27:31;;;;;;;3.72;2.60;;;;;;;25.15;51.11;100120.97;41382324;28;20045;-77
2023/09/23 14:47:32;;;;;;;3.40;2.80;;;;;;;25.00;51.32;100092.38;41381552;28;20566;-77
2023/09/23 15:07:32;;;;;;;3.25;2.63;;;;;;;25.01;51.33;100104.63;41376260;28;20038;-78
2023/09/23 15:27:34;;;;;;;4.15;2.72;;;;;;;25.12;51.31;100105.38;41377838;28;20042;-76
2023/09/23 15:47:35;;;;;;;2.70;2.50;;;;;;;25.10;51.13;100137.31;41366925;28;20037;-77
2023/09/23 16:07:38;;;;;;;3.03;2.70;;;;;;;24.87;50.88;100097.19;41363871;28;20049;-77
2023/09/23 16:27:41;;;;;;;3.00;2.77;;;;;;;25.08;51.28;100149.88;41365011;28;20351;-76
2023/09/23 16:47:43;;;;;;;3.10;2.90;;;;;;;24.84;51.30;100134.56;41386706;28;20113;-76
2023/09/23 17:07:45;;;;;;;2.42;2.22;;;;;;;24.65;51.15;100161.97;41394220;28;20521;-76
2023/09/23 17:27:46;;;;;;;3.15;2.72;;;;;;;25.01;51.21;100258.28;41388115;28;20069;-76
2023/09/23 17:47:48;;;;;;;2.42;2.22;;;;;;;25.00;51.19;100232.75;41376997;28;21668;-76
2023/09/23 18:07:49;;;;;;;2.47;2.28;;;;;;;24.75;50.64;100149.53;41377560;28;20046;-76
2023/09/23 18:27:51;;;;;;;2.70;2.50;;;;;;;24.76;50.92;100100.91;41371401;28;20123;-79
2023/09/23 18:47:52;;;;;;;2.40;2.20;;;;;;;24.81;50.81;100108.41;41362640;28;20050;-76
2023/09/23 19:07:54;;;;;;;2.80;2.45;;;;;;;24.71;50.48;100114.59;41362713;28;20498;-76
2023/09/23 19:27:55;;;;;;;2.50;2.30;;;;;;;24.70;50.57;100165.88;41372950;28;20486;-77
2023/09/23 19:47:57;;;;;;;2.40;2.03;;;;;;;24.95;50.76;100232.38;41361432;28;20065;-75
2023/09/23 20:07:59;;;;;;;1.83;1.73;;;;;;;24.86;50.37;100178.44;41378072;28;20030;-77
2023/09/23 20:28:01;;;;;;;2.40;2.20;;;;;;;24.21;50.25;100107.00;41395135;28;20053;-77
2023/09/23 20:48:02;;;;;;;1.77;1.67;;;;;;;24.92;50.38;100209.63;41384067;28;20140;-82
2023/09/23 21:08:03;;;;;;;2.45;2.25;;;;;;;24.86;50.41;100164.38;41388446;28;20050;-76
2023/09/23 21:28:04;;;;;;;2.38;2.17;;;;;;;24.87;50.24;100160.75;41382203;28;20038;-77
2023/09/23 21:48:06;;;;;;;2.40;2.20;;;;;;;24.86;50.58;100165.22;41384982;28;20054;-79
2023/09/23 22:08:08;;;;;;;2.33;2.13;;;;;;;24.78;50.28;100157.19;41358969;28;20045;-76
2023/09/23 22:28:10;;;;;;;2.20;2.00;;;;;;;24.70;50.31;100139.38;41374325;28;20125;-77
2023/09/23 22:48:10;;;;;;;2.00;1.90;;;;;;;24.57;50.14;100123.84;41351784;28;20029;-76
2023/09/23 23:08:11;;;;;;;2.30;2.10;;;;;;;24.83;50.27;100247.63;41362791;28;20049;-76
2023/09/23 23:28:11;;;;;;;2.22;1.92;;;;;;;24.64;50.29;100224.66;41361762;28;20038;-76
2023/09/23 23:48:12;;;;;;;2.22;2.03;;;;;;;24.59;50.15;100172.16;41392525;28;20046;-76
